^^
Saratoga-Weather Station Historical Data
Daily Summary for March 9, 2021 Units:  English    Metric   Both
Daily Weekly Monthly Yearly Custom
  High: Low: Average:
Temperature: 49.8 °F 33.8 °F 39.4 °F
Dew Point: 44.4 °F 33.1 °F 37 °F
Humidity: 98% 70% 91%
Wind Speed: 10.1mph 0mph 0.5mph
Wind Gust: 10mph - -
Wind- - East
Pressure: 30.3 in 30.3 in -
Precipitation: 0.01 in    
Historical Graphs
 
 
Tabular Data for March 9, 2021
Time Temperature Dew Point Pressure Wind Wind Speed Wind Gust Humidity Rainfall Rate (Hourly) solar
00:03 34.5 °F 33.4 °F 30.3 in Calm     96% 0 in 0 W/m2
00:08 34.5 °F 33.4 °F 30.3 in Calm     96% 0 in 0 W/m2
00:13 34.3 °F 33.3 °F 30.3 in Calm     96% 0 in 0 W/m2
00:18 34.3 °F 33.3 °F 30.3 in Calm     96% 0 in 0 W/m2
00:23 34.3 °F 33.3 °F 30.3 in Calm     96% 0 in 0 W/m2
00:28 34.3 °F 33.3 °F 30.3 in Calm     96% 0 in 0 W/m2
00:33 34.3 °F 33.3 °F 30.3 in Calm     96% 0 in 0 W/m2
00:38 34.5 °F 33.4 °F 30.3 in Calm     96% 0 in 0 W/m2
00:43 34.5 °F 33.4 °F 30.3 in Calm     96% 0 in 0 W/m2
00:48 34.5 °F 33.4 °F 30.3 in Calm     96% 0 in 0 W/m2
00:53 34.9 °F 33.8 °F 30.3 in Calm     96% 0 in 0 W/m2
00:58 34.9 °F 34.2 °F 30.3 in Calm     97% 0 in 0 W/m2
01:03 34.9 °F 33.8 °F 30.3 in Calm     96% 0 in 0 W/m2
01:08 35.1 °F 34 °F 30.3 in Calm     96% 0 in 0 W/m2
01:13 35.2 °F 34.2 °F 30.3 in Calm     96% 0 in 0 W/m2
01:18 35.4 °F 34.7 °F 30.3 in Calm     97% 0 in 0 W/m2
01:23 35.6 °F 34.9 °F 30.3 in Calm     97% 0 in 0 W/m2
01:28 35.8 °F 35.1 °F 30.3 in Calm     97% 0 in 0 W/m2
01:33 35.8 °F 35.1 °F 30.3 in Calm     97% 0 in 0 W/m2
01:38 36 °F 35.2 °F 30.3 in Calm   2 mph 97% 0 in 0 W/m2
01:43 36 °F 35.2 °F 30.3 in Calm     97% 0 in 0 W/m2
01:48 36 °F 35.2 °F 30.3 in Calm   2 mph 97% 0 in 0 W/m2
01:53 36.1 °F 35.4 °F 30.3 in Calm     97% 0 in 0 W/m2
01:58 36.1 °F 35.4 °F 30.3 in Calm     97% 0 in 0 W/m2
02:03 36.1 °F 35.4 °F 30.3 in Calm     97% 0 in 0 W/m2
02:08 36.1 °F 35.4 °F 30.3 in Calm     97% 0 in 0 W/m2
02:13 36.1 °F 35.4 °F 30.3 in Calm     97% 0 in 0 W/m2
02:18 36.1 °F 35.4 °F 30.3 in Calm     97% 0 in 0 W/m2
02:23 36.1 °F 35.4 °F 30.3 in Calm     97% 0 in 0 W/m2
02:28 36.1 °F 35.4 °F 30.3 in Calm     97% 0 in 0 W/m2
02:33 36.1 °F 35.4 °F 30.3 in Calm     97% 0 in 0 W/m2
02:38 36.1 °F 35.4 °F 30.3 in Calm     97% 0 in 0 W/m2
02:43 36.1 °F 35.4 °F 30.3 in Calm     97% 0 in 0 W/m2
02:48 36.1 °F 35.4 °F 30.3 in Calm     97% 0 in 0 W/m2
02:53 36.1 °F 35.4 °F 30.3 in Calm     97% 0 in 0 W/m2
02:58 36.1 °F 35.4 °F 30.3 in Calm     97% 0 in 0 W/m2
03:03 36.1 °F 35.4 °F 30.3 in Calm     97% 0 in 0 W/m2
03:08 36.1 °F 35.4 °F 30.3 in Calm     97% 0 in 0 W/m2
03:13 36.1 °F 35.4 °F 30.3 in Calm     97% 0 in 0 W/m2
03:18 36.1 °F 35.4 °F 30.3 in Calm     97% 0 in 0 W/m2
03:23 36.1 °F 35.4 °F 30.3 in Calm     97% 0 in 0 W/m2
03:28 36.1 °F 35.4 °F 30.3 in Calm     97% 0.01 in 0 W/m2
03:33 36.1 °F 35.4 °F 30.3 in Calm     97% 0.01 in 0 W/m2
03:38 36.1 °F 35.4 °F 30.3 in Calm     97% 0.01 in 0 W/m2
03:43 36.1 °F 35.4 °F 30.3 in Calm     97% 0.01 in 0 W/m2
03:48 36.1 °F 35.4 °F 30.3 in Calm     97% 0.01 in 0 W/m2
03:53 36.1 °F 35.4 °F 30.3 in Calm     97% 0.01 in 0 W/m2
03:58 36.1 °F 35.4 °F 30.3 in Calm     97% 0.01 in 0 W/m2
04:03 36.3 °F 35.6 °F 30.3 in Calm     97% 0.01 in 0 W/m2
04:08 36.3 °F 35.6 °F 30.3 in Calm   3 mph 97% 0.01 in 0 W/m2
04:13 36.3 °F 35.6 °F 30.3 in ENE 0.9 mph 1 mph 97% 0.01 in 0 W/m2
04:18 36.3 °F 35.6 °F 30.3 in Calm     97% 0.01 in 0 W/m2
04:23 36.3 °F 35.6 °F 30.3 in Calm     97% 0 in 0 W/m2
04:28 36.1 °F 35.4 °F 30.3 in Calm     97% 0 in 0 W/m2
04:33 36.1 °F 35.4 °F 30.3 in Calm     97% 0 in 0 W/m2
04:38 36.1 °F 35.4 °F 30.3 in Calm     97% 0 in 0 W/m2
04:43 36.1 °F 35.4 °F 30.3 in ENE 2 mph 3 mph 97% 0 in 0 W/m2
04:48 36 °F 35.2 °F 30.3 in ESE 2 mph 4 mph 97% 0 in 0 W/m2
04:53 36 °F 35.2 °F 30.3 in East 2 mph 2 mph 97% 0 in 0 W/m2
04:58 35.8 °F 35.1 °F 30.3 in East 0.9 mph 1 mph 97% 0 in 0 W/m2
05:03 35.8 °F 35.1 °F 30.3 in Calm   2 mph 97% 0 in 0 W/m2
05:08 35.8 °F 35.1 °F 30.3 in Calm   1 mph 97% 0 in 0 W/m2
05:13 35.6 °F 34.9 °F 30.3 in Calm     97% 0 in 0 W/m2
05:18 35.4 °F 34.7 °F 30.3 in Calm   2 mph 97% 0 in 0 W/m2
05:23 35.4 °F 34.7 °F 30.3 in Calm     97% 0 in 0 W/m2
05:28 35.4 °F 34.7 °F 30.3 in Calm   2 mph 97% 0 in 0 W/m2
05:33 35.4 °F 34.7 °F 30.3 in Calm     97% 0 in 0 W/m2
05:38 35.4 °F 34.7 °F 30.3 in Calm   2 mph 97% 0 in 0 W/m2
05:43 35.2 °F 34.5 °F 30.3 in Calm     97% 0 in 0 W/m2
05:48 35.2 °F 34.5 °F 30.3 in Calm   1 mph 97% 0 in 0 W/m2
05:53 35.2 °F 34.5 °F 30.3 in Calm     97% 0 in 0 W/m2
05:58 35.2 °F 34.5 °F 30.3 in Calm     97% 0 in 0 W/m2
06:03 35.2 °F 34.5 °F 30.3 in Calm     97% 0 in 0 W/m2
06:08 35.2 °F 34.5 °F 30.3 in Calm     97% 0 in 0 W/m2
06:13 35.2 °F 34.5 °F 30.3 in Calm     97% 0 in 0 W/m2
06:19 35.1 °F 34.3 °F 30.3 in Calm     97% 0 in 0 W/m2
06:24 35.2 °F 34.5 °F 30.3 in Calm     97% 0 in 0 W/m2
06:29 35.2 °F 34.5 °F 30.3 in Calm     97% 0 in 0 W/m2
06:34 35.1 °F 34.3 °F 30.3 in Calm     97% 0 in 0 W/m2
06:39 35.1 °F 34.3 °F 30.3 in ENE 0.9 mph 1 mph 97% 0 in 0 W/m2
06:44 34.9 °F 34.2 °F 30.3 in ENE 0.9 mph 1 mph 97% 0 in 0 W/m2
06:49 34.5 °F 33.8 °F 30.3 in Calm   1 mph 97% 0 in 0 W/m2
06:54 34.3 °F 33.6 °F 30.3 in ENE 2 mph 2 mph 97% 0 in 0 W/m2
06:59 34.2 °F 33.4 °F 30.3 in Calm   1 mph 97% 0 in 0 W/m2
07:04 34.2 °F 33.4 °F 30.3 in Calm     97% 0 in 0 W/m2
07:09 34 °F 33.3 °F 30.3 in Calm     97% 0 in 0 W/m2
07:14 34 °F 33.3 °F 30.3 in Calm     97% 0 in 0 W/m2
07:19 33.8 °F 33.1 °F 30.3 in Calm     97% 0 in 0 W/m2
07:24 33.8 °F 33.1 °F 30.3 in Calm     97% 0 in 0 W/m2
07:29 33.8 °F 33.1 °F 30.3 in Calm     97% 0 in 0 W/m2
07:34 33.8 °F 33.1 °F 30.3 in Calm     97% 0 in 0 W/m2
07:39 33.8 °F 33.1 °F 30.3 in Calm     97% 0 in 5 W/m2
07:44 34 °F 33.3 °F 30.3 in Calm     97% 0 in 7 W/m2
07:49 34 °F 33.3 °F 30.3 in Calm     97% 0 in 11 W/m2
07:54 34.2 °F 33.4 °F 30.3 in Calm     97% 0 in 12 W/m2
07:59 34.2 °F 33.4 °F 30.3 in Calm     97% 0 in 19 W/m2
08:04 34.2 °F 33.4 °F 30.3 in Calm     97% 0 in 23 W/m2
08:09 34.2 °F 33.4 °F 30.3 in Calm     97% 0 in 25 W/m2
08:14 34.2 °F 33.4 °F 30.3 in Calm     97% 0 in 26 W/m2
08:19 34 °F 33.3 °F 30.3 in Calm     97% 0 in 30 W/m2
08:24 34 °F 33.3 °F 30.3 in Calm     97% 0 in 37 W/m2
08:29 34 °F 33.3 °F 30.3 in Calm     97% 0 in 42 W/m2
08:34 34 °F 33.3 °F 30.3 in Calm     97% 0 in 47 W/m2
08:39 34 °F 33.3 °F 30.3 in Calm     97% 0 in 39 W/m2
08:44 34 °F 33.3 °F 30.3 in Calm     97% 0 in 51 W/m2
08:49 34 °F 33.3 °F 30.3 in Calm     97% 0 in 54 W/m2
08:54 34 °F 33.3 °F 30.3 in Calm     97% 0 in 70 W/m2
08:59 34.2 °F 33.4 °F 30.3 in Calm     97% 0 in 74 W/m2
09:04 34.2 °F 33.4 °F 30.3 in Calm     97% 0 in 83 W/m2
09:09 34.3 °F 33.6 °F 30.3 in Calm     97% 0 in 67 W/m2
09:14 34.3 °F 33.6 °F 30.3 in Calm     97% 0 in 70 W/m2
09:19 34.5 °F 33.8 °F 30.3 in Calm     97% 0 in 58 W/m2
09:24 34.5 °F 33.8 °F 30.3 in Calm     97% 0 in 72 W/m2
09:29 34.7 °F 34 °F 30.3 in NE 0.9 mph 1 mph 97% 0 in 77 W/m2
09:34 34.7 °F 34 °F 30.3 in Calm     97% 0 in 70 W/m2
09:39 34.9 °F 34.2 °F 30.3 in East 0.9 mph 2 mph 97% 0 in 65 W/m2
09:44 34.9 °F 34.2 °F 30.3 in Calm   1 mph 97% 0 in 63 W/m2
09:49 34.9 °F 34.2 °F 30.3 in Calm   1 mph 97% 0 in 79 W/m2
09:54 34.9 °F 34.2 °F 30.3 in Calm     97% 0 in 88 W/m2
09:59 35.1 °F 34.3 °F 30.3 in Calm     97% 0 in 74 W/m2
10:04 35.2 °F 34.5 °F 30.3 in Calm     97% 0 in 84 W/m2
10:09 35.4 °F 34.7 °F 30.3 in Calm     97% 0 in 70 W/m2
10:14 35.8 °F 35.1 °F 30.3 in Calm     97% 0 in 46 W/m2
10:19 35.8 °F 35.1 °F 30.3 in Calm     97% 0 in 47 W/m2
10:24 36 °F 35.2 °F 30.3 in Calm     97% 0 in 44 W/m2
10:29 36 °F 35.2 °F 30.3 in Calm     97% 0 in 44 W/m2
10:34 36.1 °F 35.4 °F 30.3 in Calm     97% 0 in 37 W/m2
10:39 36.3 °F 35.6 °F 30.3 in Calm     97% 0 in 37 W/m2
10:44 36.7 °F 36 °F 30.3 in Calm     97% 0 in 40 W/m2
10:49 36.9 °F 36.1 °F 30.3 in Calm     97% 0 in 58 W/m2
10:54 37 °F 36.3 °F 30.3 in ENE 0.9 mph 2 mph 97% 0 in 39 W/m2
10:59 37.2 °F 36.5 °F 30.3 in Calm     97% 0 in 40 W/m2
11:04 37.6 °F 37 °F 30.3 in ENE 2 mph 2 mph 98% 0 in 42 W/m2
11:09 37.8 °F 37 °F 30.3 in Calm     97% 0 in 44 W/m2
11:14 37.9 °F 37.2 °F 30.3 in Calm     97% 0 in 37 W/m2
11:19 38.1 °F 37.6 °F 30.3 in Calm     98% 0 in 44 W/m2
11:24 38.5 °F 37.8 °F 30.3 in Calm     97% 0 in 35 W/m2
11:29 38.8 °F 38.3 °F 30.3 in Calm     98% 0 in 40 W/m2
11:34 39 °F 38.5 °F 30.3 in Calm     98% 0 in 39 W/m2
11:39 39.4 °F 38.7 °F 30.3 in Calm     97% 0 in 39 W/m2
11:44 39.6 °F 39 °F 30.3 in Calm     98% 0 in 107 W/m2
11:49 39.9 °F 39.4 °F 30.3 in Calm   2 mph 98% 0 in 109 W/m2
11:54 40.5 °F 39.9 °F 30.3 in Calm   1 mph 98% 0 in 121 W/m2
11:59 41 °F 40.5 °F 30.3 in NE 0.9 mph 2 mph 98% 0 in 56 W/m2
12:04 41.4 °F 40.8 °F 30.3 in Calm   1 mph 98% 0 in 74 W/m2
12:09 41.5 °F 41 °F 30.3 in Calm   2 mph 98% 0 in 44 W/m2
12:14 41.7 °F 41.2 °F 30.3 in North 0.9 mph 1 mph 98% 0 in 47 W/m2
12:19 42.1 °F 41.5 °F 30.3 in Calm     98% 0 in 63 W/m2
12:24 42.3 °F 41.7 °F 30.3 in ENE 4 mph 5 mph 98% 0 in 42 W/m2
12:29 42.6 °F 42.1 °F 30.3 in ENE 0.9 mph 4 mph 98% 0 in 65 W/m2
12:34 43.2 °F 42.6 °F 30.3 in ESE 4 mph 6 mph 98% 0 in 51 W/m2
12:39 43.5 °F 43 °F 30.3 in ENE 2 mph 4 mph 98% 0 in 35 W/m2
12:44 44.2 °F 43.7 °F 30.3 in North 2.9 mph 6 mph 98% 0 in 37 W/m2
12:49 45 °F 44.2 °F 30.3 in East 2 mph 5 mph 97% 0 in 39 W/m2
12:54 45.9 °F 44.4 °F 30.3 in East 2 mph 6 mph 95% 0 in 46 W/m2
12:59 46.4 °F 43 °F 30.3 in East 4 mph 5 mph 88% 0 in 51 W/m2
13:04 46.9 °F 42.4 °F 30.3 in East 0.9 mph 6 mph 84% 0 in 149 W/m2
13:09 47.3 °F 42.1 °F 30.3 in East 2 mph 6 mph 82% 0 in 97 W/m2
13:14 47.5 °F 41.5 °F 30.3 in East 2.9 mph 6 mph 80% 0 in 33 W/m2
13:19 47.7 °F 41.5 °F 30.3 in ENE 2.9 mph 8 mph 79% 0 in 46 W/m2
13:24 47.8 °F 41.7 °F 30.3 in NNE 0.9 mph 3 mph 79% 0 in 67 W/m2
13:29 48 °F 41.9 °F 30.3 in ENE 2 mph 7 mph 79% 0 in 74 W/m2
13:34 48 °F 41.5 °F 30.3 in NE 2.9 mph 5 mph 78% 0 in 56 W/m2
13:39 48.4 °F 41.5 °F 30.3 in NE 4.9 mph 5 mph 77% 0 in 39 W/m2
13:44 48.4 °F 41.5 °F 30.3 in East 6.9 mph 7 mph 77% 0 in 84 W/m2
13:49 48.6 °F 41.7 °F 30.3 in East 2.9 mph 4 mph 77% 0 in 40 W/m2
13:54 48.7 °F 41.9 °F 30.3 in NE 0.9 mph 4 mph 77% 0 in 32 W/m2
13:59 48.9 °F 42.1 °F 30.3 in ESE 0.9 mph 2 mph 77% 0 in 42 W/m2
14:04 48.9 °F 41.4 °F 30.3 in ENE 0.9 mph 6 mph 75% 0 in 39 W/m2
14:09 49.3 °F 41.4 °F 30.3 in SE 4 mph 4 mph 74% 0 in 32 W/m2
14:14 49.5 °F 40.8 °F 30.3 in Calm   5 mph 72% 0 in 30 W/m2
14:19 49.6 °F 41.4 °F 30.3 in ENE 4 mph 8 mph 73% 0 in 30 W/m2
14:24 49.6 °F 40.6 °F 30.3 in ENE 10.1 mph 10 mph 71% 0 in 28 W/m2
14:29 49.8 °F 40.5 °F 30.3 in ESE 2.9 mph 8 mph 70% 0 in 30 W/m2
14:34 49.8 °F 41.2 °F 30.3 in SE 2 mph 10 mph 72% 0 in 28 W/m2
14:39 49.6 °F 40.3 °F 30.3 in ESE 0.9 mph 6 mph 70% 0 in 28 W/m2
14:44 49.6 °F 41 °F 30.3 in East 2.9 mph 3 mph 72% 0 in 28 W/m2
14:49 49.5 °F 40.8 °F 30.3 in Calm   4 mph 72% 0 in 28 W/m2
14:54 49.5 °F 41.5 °F 30.3 in East 2 mph 2 mph 74% 0 in 28 W/m2
14:59 49.3 °F 41 °F 30.3 in SE 2 mph 3 mph 73% 0 in 26 W/m2
15:04 48.9 °F 40.6 °F 30.3 in East 2.9 mph 4 mph 73% 0 in 26 W/m2
15:09 48.9 °F 40.6 °F 30.3 in NE 2.9 mph 4 mph 73% 0 in 26 W/m2
15:14 49.3 °F 40.3 °F 30.3 in East 2.9 mph 3 mph 71% 0 in 26 W/m2
15:20 49.5 °F 40.1 °F 30.3 in Calm   3 mph 70% 0 in 26 W/m2
15:25 49.6 °F 40.6 °F 30.3 in ESE 0.9 mph 2 mph 71% 0 in 26 W/m2
15:30 49.5 °F 40.1 °F 30.3 in SE 4 mph 6 mph 70% 0 in 28 W/m2
15:35 49.3 °F 40.3 °F 30.3 in NE 0.9 mph 4 mph 71% 0 in 28 W/m2
15:40 49.3 °F 40.3 °F 30.3 in East 0.9 mph 3 mph 71% 0 in 28 W/m2
15:45 49.1 °F 40.1 °F 30.3 in East 2 mph 7 mph 71% 0 in 28 W/m2
15:50 49.3 °F 39.9 °F 30.3 in NE 2.9 mph 4 mph 70% 0 in 28 W/m2
15:55 49.3 °F 39.9 °F 30.3 in East 2.9 mph 6 mph 70% 0 in 28 W/m2
16:00 49.1 °F 40.5 °F 30.3 in Calm   1 mph 72% 0 in 26 W/m2
16:05 48.7 °F 40.1 °F 30.3 in Calm   4 mph 72% 0 in 25 W/m2
16:10 48.6 °F 40.3 °F 30.3 in ESE 0.9 mph 1 mph 73% 0 in 23 W/m2
16:15 48.4 °F 40.5 °F 30.3 in East 2.9 mph 4 mph 74% 0 in 21 W/m2
16:20 48 °F 40.1 °F 30.3 in ENE 0.9 mph 2 mph 74% 0 in 19 W/m2
16:25 47.8 °F 40.3 °F 30.3 in Calm   1 mph 75% 0 in 18 W/m2
16:30 47.7 °F 40.5 °F 30.3 in Calm     76% 0 in 16 W/m2
16:35 47.3 °F 40.5 °F 30.3 in Calm     77% 0 in 16 W/m2
16:40 46.9 °F 40.5 °F 30.3 in Calm     78% 0 in 14 W/m2
16:45 46.8 °F 40.3 °F 30.3 in East 0.9 mph 1 mph 78% 0 in 12 W/m2
16:50 46.8 °F 40.6 °F 30.3 in Calm     79% 0 in 11 W/m2
16:55 46.8 °F 41 °F 30.3 in Calm   1 mph 80% 0 in 9 W/m2
17:00 46.6 °F 40.8 °F 30.3 in East 0.9 mph 1 mph 80% 0 in 5 W/m2
17:05 46.4 °F 40.8 °F 30.3 in Calm     81% 0 in 5 W/m2
17:10 46.2 °F 40.6 °F 30.3 in Calm     81% 0 in 0 W/m2
17:15 45.9 °F 40.6 °F 30.3 in Calm   1 mph 82% 0 in 0 W/m2
17:20 45.7 °F 40.5 °F 30.3 in Calm     82% 0 in 0 W/m2
17:25 45.3 °F 40.5 °F 30.3 in East 0.9 mph 2 mph 83% 0 in 0 W/m2
17:30 45.1 °F 40.6 °F 30.3 in Calm     84% 0 in 0 W/m2
17:35 45.1 °F 40.6 °F 30.3 in Calm   1 mph 84% 0 in 0 W/m2
17:40 44.8 °F 40.5 °F 30.3 in Calm   1 mph 85% 0 in 0 W/m2
17:45 44.6 °F 40.5 °F 30.3 in Calm   1 mph 85% 0 in 0 W/m2
17:50 44.2 °F 40.1 °F 30.3 in Calm     85% 0 in 0 W/m2
17:55 43.9 °F 39.9 °F 30.3 in SE 0.9 mph 2 mph 86% 0 in 0 W/m2
18:00 43.7 °F 40.1 °F 30.3 in Calm   1 mph 87% 0 in 0 W/m2
18:06 43.5 °F 39.9 °F 30.3 in Calm     87% 0 in 0 W/m2
18:11 43.3 °F 39.7 °F 30.3 in Calm     87% 0 in 0 W/m2
18:16 43.3 °F 40.1 °F 30.3 in Calm     88% 0 in 0 W/m2
18:21 43.2 °F 39.9 °F 30.3 in Calm     88% 0 in 0 W/m2
18:26 43 °F 39.7 °F 30.3 in Calm     88% 0 in 0 W/m2
18:31 42.6 °F 39.4 °F 30.3 in Calm     88% 0 in 0 W/m2
18:36 42.4 °F 39.2 °F 30.3 in Calm     88% 0 in 0 W/m2
18:41 42.3 °F 39.2 °F 30.3 in Calm     89% 0 in 0 W/m2
18:46 42.1 °F 39 °F 30.3 in Calm     89% 0 in 0 W/m2
18:51 41.7 °F 38.7 °F 30.3 in Calm     89% 0 in 0 W/m2
18:56 41.5 °F 38.5 °F 30.3 in Calm     89% 0 in 0 W/m2
19:01 41.4 °F 38.7 °F 30.3 in Calm     90% 0 in 0 W/m2
19:06 41.4 °F 38.7 °F 30.3 in Calm   2 mph 90% 0 in 0 W/m2
19:11 41.2 °F 38.5 °F 30.3 in Calm     90% 0 in 0 W/m2
19:16 41.2 °F 38.5 °F 30.3 in Calm   2 mph 90% 0 in 0 W/m2
19:21 41 °F 38.3 °F 30.3 in Calm     90% 0 in 0 W/m2
19:26 40.8 °F 38.1 °F 30.3 in Calm     90% 0 in 0 W/m2
19:31 40.8 °F 38.5 °F 30.3 in Calm     91% 0 in 0 W/m2
19:36 40.6 °F 38.3 °F 30.3 in Calm     91% 0 in 0 W/m2
19:41 40.6 °F 38.3 °F 30.3 in Calm   1 mph 91% 0 in 0 W/m2
19:46 40.5 °F 38.1 °F 30.3 in Calm     91% 0 in 0 W/m2
19:51 40.5 °F 38.1 °F 30.3 in SE 0.9 mph 1 mph 91% 0 in 0 W/m2
19:56 40.3 °F 37.9 °F 30.3 in Calm   1 mph 91% 0 in 0 W/m2
20:01 40.3 °F 37.9 °F 30.3 in Calm   2 mph 91% 0 in 0 W/m2
20:06 40.3 °F 37.9 °F 30.3 in Calm   2 mph 91% 0 in 0 W/m2
20:11 40.5 °F 38.3 °F 30.3 in ESE 0.9 mph 2 mph 92% 0 in 0 W/m2
20:16 40.6 °F 38.5 °F 30.3 in ESE 0.9 mph 2 mph 92% 0 in 0 W/m2
20:21 40.8 °F 38.7 °F 30.3 in Calm   2 mph 92% 0 in 0 W/m2
20:26 41 °F 38.7 °F 30.3 in ESE 2 mph 2 mph 91% 0 in 0 W/m2
20:31 41 °F 38.7 °F 30.3 in Calm   1 mph 91% 0 in 0 W/m2
20:36 40.8 °F 38.1 °F 30.3 in SE 0.9 mph 2 mph 90% 0 in 0 W/m2
20:41 40.8 °F 38.1 °F 30.3 in SE 0.9 mph 2 mph 90% 0 in 0 W/m2
20:46 40.6 °F 37.9 °F 30.3 in SE 0.9 mph 1 mph 90% 0 in 0 W/m2
20:51 40.5 °F 37.8 °F 30.3 in Calm     90% 0 in 0 W/m2
20:56 40.1 °F 37.4 °F 30.3 in Calm     90% 0 in 0 W/m2
21:01 39.9 °F 37.2 °F 30.3 in Calm     90% 0 in 0 W/m2
21:06 39.7 °F 37.4 °F 30.3 in Calm     91% 0 in 0 W/m2
21:11 39.6 °F 37.2 °F 30.3 in Calm     91% 0 in 0 W/m2
21:16 39.4 °F 37 °F 30.3 in Calm   2 mph 91% 0 in 0 W/m2
21:21 39.2 °F 37 °F 30.3 in Calm   1 mph 92% 0 in 0 W/m2
21:26 39 °F 36.9 °F 30.3 in Calm     92% 0 in 0 W/m2
21:31 39 °F 36.9 °F 30.3 in Calm     92% 0 in 0 W/m2
21:36 38.8 °F 36.7 °F 30.3 in Calm     92% 0 in 0 W/m2
21:41 38.8 °F 36.7 °F 30.3 in Calm     92% 0 in 0 W/m2
21:46 38.8 °F 37 °F 30.3 in Calm     93% 0 in 0 W/m2
21:51 38.8 °F 37 °F 30.3 in Calm     93% 0 in 0 W/m2
21:56 38.7 °F 36.9 °F 30.3 in Calm     93% 0 in 0 W/m2
22:01 38.7 °F 36.9 °F 30.3 in Calm     93% 0 in 0 W/m2
22:06 38.5 °F 36.7 °F 30.3 in Calm     93% 0 in 0 W/m2
22:11 38.3 °F 36.5 °F 30.3 in Calm     93% 0 in 0 W/m2
22:16 38.1 °F 36.3 °F 30.3 in Calm     93% 0 in 0 W/m2
22:21 37.9 °F 36.1 °F 30.3 in Calm   1 mph 93% 0 in 0 W/m2
22:26 37.8 °F 36 °F 30.3 in Calm     93% 0 in 0 W/m2
22:31 37.6 °F 35.8 °F 30.3 in Calm   1 mph 93% 0 in 0 W/m2
22:36 37.4 °F 35.6 °F 30.3 in Calm     93% 0 in 0 W/m2
22:41 37.2 °F 35.4 °F 30.3 in Calm     93% 0 in 0 W/m2
22:46 37 °F 35.2 °F 30.3 in Calm     93% 0 in 0 W/m2
22:51 37 °F 35.4 °F 30.3 in SW 2 mph 2 mph 94% 0 in 0 W/m2
22:56 37 °F 35.4 °F 30.3 in Calm     94% 0 in 0 W/m2
23:01 36.9 °F 35.2 °F 30.3 in Calm     94% 0 in 0 W/m2
23:06 36.9 °F 35.2 °F 30.3 in Calm     94% 0 in 0 W/m2
23:11 36.9 °F 35.2 °F 30.3 in Calm     94% 0 in 0 W/m2
23:16 36.9 °F 35.2 °F 30.3 in Calm     94% 0 in 0 W/m2
23:21 36.9 °F 35.2 °F 30.3 in Calm     94% 0 in 0 W/m2
23:26 36.7 °F 35.1 °F 30.3 in Calm     94% 0 in 0 W/m2
23:31 36.7 °F 35.1 °F 30.3 in Calm     94% 0 in 0 W/m2
23:36 36.7 °F 35.1 °F 30.3 in Calm     94% 0 in 0 W/m2
23:41 36.5 °F 34.9 °F 30.3 in Calm     94% 0 in 0 W/m2
23:46 36.3 °F 34.7 °F 30.3 in Calm     94% 0 in 0 W/m2
23:51 36.3 °F 34.7 °F 30.3 in Calm     94% 0 in 0 W/m2
23:56 36.3 °F 35.1 °F 30.3 in Calm   1 mph 95% 0 in 0 W/m2
Juneau County Weather
Compliments of Weather Underground - 4 mb